Time;durP1;ratioP1;P1;durP2;ratioP2;P2;SDS_P1;SDS_P2;PMS_P1;PMS_P2;Temp;Humidity;BMP_temperature;BMP_pressure;BME280_temperature;BME280_humidity;BME280_pressure;Samples;Min_cycle;Max_cycle;Signal;HPM_P1;HPM_P2
2022/05/07 00:00:23;;;;;;;5.65;3.47;;;;;;;;;;5041835;28;20162;-66
2022/05/07 00:02:49;;;;;;;5.18;3.53;;;;;;;;;;5035206;28;20030;-66
2022/05/07 00:05:15;;;;;;;7.53;3.72;;;;;;;;;;5037072;28;20030;-66
2022/05/07 00:07:41;;;;;;;7.55;3.70;;;;;;;;;;5044516;28;20424;-66
2022/05/07 00:10:07;;;;;;;5.43;3.50;;;;;;;;;;5035585;28;20104;-66
2022/05/07 00:12:33;;;;;;;4.57;3.63;;;;;;;;;;5035813;28;20033;-66
2022/05/07 00:14:59;;;;;;;7.22;3.45;;;;;;;;;;5038174;28;20036;-66
2022/05/07 00:20:10;;;;;;;5.22;3.60;;;;;;;;;;5041351;28;20080;-66
2022/05/07 00:22:36;;;;;;;3.83;3.50;;;;;;;;;;5037185;28;20065;-66
2022/05/07 00:25:02;;;;;;;5.57;3.50;;;;;;;;;;5038702;28;20021;-66
2022/05/07 00:27:29;;;;;;;4.15;3.70;;;;;;;;;;5033857;28;20025;-66
2022/05/07 00:29:55;;;;;;;6.30;3.50;;;;;;;;;;5037091;28;20087;-66
2022/05/07 00:32:20;;;;;;;3.78;3.47;;;;;;;;;;5034726;28;20379;-65
2022/05/07 00:34:46;;;;;;;4.28;3.60;;;;;;;;;;5034405;28;20025;-66
2022/05/07 00:37:12;;;;;;;5.43;3.20;;;;;;;;;;5041317;28;20021;-66
2022/05/07 00:39:38;;;;;;;7.80;3.53;;;;;;;;;;5044326;28;20104;-66
2022/05/07 00:42:05;;;;;;;8.75;3.35;;;;;;;;;;5039379;28;20362;-67
2022/05/07 00:44:31;;;;;;;3.55;3.22;;;;;;;;;;5032014;28;20128;-66
2022/05/07 00:47:26;;;;;;;6.65;3.42;;;;;;;;;;5038535;28;20043;-66
2022/05/07 00:51:33;;;;;;;4.03;3.50;;;;;;;;;;5037202;28;20075;-66
2022/05/07 00:52:43;;;;;;;4.05;3.25;;;;;;;;;;5035900;28;20032;-66
2022/05/07 00:55:11;;;;;;;6.90;3.38;;;;;;;;;;5034664;28;20041;-66
2022/05/07 00:57:37;;;;;;;5.25;3.47;;;;;;;;;;5036438;28;20363;-66
2022/05/07 01:00:05;;;;;;;5.63;3.10;;;;;;;;;;5037303;28;20086;-66
2022/05/07 01:02:32;;;;;;;3.95;3.42;;;;;;;;;;5035261;28;20048;-65
2022/05/07 01:04:58;;;;;;;4.47;3.42;;;;;;;;;;5035376;28;20095;-66
2022/05/07 01:07:23;;;;;;;4.63;3.08;;;;;;;;;;5034430;28;20431;-66
2022/05/07 01:09:49;;;;;;;4.65;3.42;;;;;;;;;;5036606;28;20381;-66
2022/05/07 01:12:16;;;;;;;3.40;3.10;;;;;;;;;;5035570;28;20025;-66
2022/05/07 01:14:42;;;;;;;3.30;3.00;;;;;;;;;;5033840;28;20053;-66
2022/05/07 01:17:09;;;;;;;4.97;3.28;;;;;;;;;;5038214;28;20071;-66
2022/05/07 01:19:35;;;;;;;4.05;3.20;;;;;;;;;;5033688;28;20021;-65
2022/05/07 01:22:04;;;;;;;4.47;3.38;;;;;;;;;;5037450;28;20029;-66
2022/05/07 01:24:30;;;;;;;4.85;3.60;;;;;;;;;;5036252;28;20568;-52
2022/05/07 01:26:56;;;;;;;5.88;3.45;;;;;;;;;;5035566;28;20040;-65
2022/05/07 01:29:22;;;;;;;4.05;3.70;;;;;;;;;;5037461;28;20111;-66
2022/05/07 01:31:48;;;;;;;8.50;3.40;;;;;;;;;;5036068;28;20033;-66
2022/05/07 01:34:13;;;;;;;7.43;3.50;;;;;;;;;;5034078;28;20457;-66
2022/05/07 01:36:39;;;;;;;4.43;3.55;;;;;;;;;;5040558;28;20074;-66
2022/05/07 01:39:05;;;;;;;5.20;3.42;;;;;;;;;;5036854;28;20035;-66
2022/05/07 01:41:31;;;;;;;8.43;3.40;;;;;;;;;;5036211;28;20151;-65
2022/05/07 01:43:58;;;;;;;5.57;3.20;;;;;;;;;;5036487;28;20038;-66
2022/05/07 01:49:09;;;;;;;3.80;3.50;;;;;;;;;;5040738;28;20420;-66
2022/05/07 01:51:34;;;;;;;3.80;3.47;;;;;;;;;;5041049;28;20474;-66
2022/05/07 01:54:01;;;;;;;3.72;3.42;;;;;;;;;;5034862;28;20060;-64
2022/05/07 01:56:26;;;;;;;3.60;3.30;;;;;;;;;;5038205;28;20113;-65
2022/05/07 01:58:52;;;;;;;4.03;3.63;;;;;;;;;;5039025;28;20565;-66
2022/05/07 02:01:19;;;;;;;5.38;3.55;;;;;;;;;;5039501;28;20413;-66
2022/05/07 02:03:44;;;;;;;3.72;3.30;;;;;;;;;;5041285;28;20040;-66
2022/05/07 02:06:10;;;;;;;3.72;3.35;;;;;;;;;;5040035;28;20041;-65
2022/05/07 02:08:36;;;;;;;7.18;3.40;;;;;;;;;;5047178;28;20779;-66
2022/05/07 02:11:02;;;;;;;6.82;3.75;;;;;;;;;;5041898;28;20124;-65
2022/05/07 02:13:28;;;;;;;5.35;3.42;;;;;;;;;;5036721;28;20159;-65
2022/05/07 02:15:54;;;;;;;4.18;3.72;;;;;;;;;;5040969;28;20037;-66
2022/05/07 02:18:20;;;;;;;3.78;3.47;;;;;;;;;;5040777;28;20064;-65
2022/05/07 02:20:46;;;;;;;4.03;3.65;;;;;;;;;;5039830;28;20494;-66
2022/05/07 02:23:11;;;;;;;4.65;3.35;;;;;;;;;;5042086;28;20398;-66
2022/05/07 02:25:37;;;;;;;3.83;3.50;;;;;;;;;;5047144;28;20029;-65
2022/05/07 02:28:06;;;;;;;3.70;3.40;;;;;;;;;;5039940;28;20254;-65
2022/05/07 02:30:32;;;;;;;3.80;3.17;;;;;;;;;;5038654;28;20029;-65
2022/05/07 02:32:58;;;;;;;3.15;2.95;;;;;;;;;;5036448;28;20033;-65
2022/05/07 02:35:25;;;;;;;3.88;2.90;;;;;;;;;;5043551;28;20028;-66
2022/05/07 02:37:50;;;;;;;3.55;3.25;;;;;;;;;;5038726;28;20029;-66
2022/05/07 02:40:16;;;;;;;5.25;3.25;;;;;;;;;;5041717;28;20032;-65
2022/05/07 02:42:43;;;;;;;6.65;3.25;;;;;;;;;;5035375;28;20086;-65
2022/05/07 02:45:11;;;;;;;3.90;3.35;;;;;;;;;;5035280;28;20121;-66
2022/05/07 02:47:39;;;;;;;8.25;3.70;;;;;;;;;;5036810;28;20543;-65
2022/05/07 02:50:07;;;;;;;3.47;3.22;;;;;;;;;;5041642;28;20025;-65
2022/05/07 02:52:33;;;;;;;3.92;3.53;;;;;;;;;;5042619;28;20030;-65
2022/05/07 02:55:03;;;;;;;4.13;3.35;;;;;;;;;;5040471;28;20576;-66
2022/05/07 02:57:29;;;;;;;3.78;3.20;;;;;;;;;;5037306;28;20043;-66
2022/05/07 02:59:55;;;;;;;15.73;3.10;;;;;;;;;;5038656;28;20033;-66
2022/05/07 03:02:21;;;;;;;5.32;2.90;;;;;;;;;;5040227;28;20135;-66
2022/05/07 03:04:48;;;;;;;3.03;2.72;;;;;;;;;;5034331;28;20481;-66
2022/05/07 03:07:14;;;;;;;3.65;3.25;;;;;;;;;;5047356;28;20033;-65
2022/05/07 03:09:40;;;;;;;4.22;3.10;;;;;;;;;;5036596;28;20103;-66
2022/05/07 03:12:06;;;;;;;11.35;3.15;;;;;;;;;;5038178;28;20056;-65
2022/05/07 03:14:32;;;;;;;5.53;3.03;;;;;;;;;;5039791;28;20033;-65
2022/05/07 03:16:59;;;;;;;3.25;3.03;;;;;;;;;;5037731;28;20034;-66
2022/05/07 03:19:25;;;;;;;5.03;2.70;;;;;;;;;;5043384;28;20171;-66
2022/05/07 03:21:51;;;;;;;3.47;3.00;;;;;;;;;;5043797;28;20033;-65
2022/05/07 03:24:17;;;;;;;4.45;2.83;;;;;;;;;;5039891;28;20400;-65
2022/05/07 03:26:43;;;;;;;4.97;2.80;;;;;;;;;;5035415;28;20025;-66
2022/05/07 03:29:09;;;;;;;2.90;2.70;;;;;;;;;;5041775;28;20036;-66
2022/05/07 03:31:34;;;;;;;2.70;2.60;;;;;;;;;;5040111;28;20374;-65
2022/05/07 03:34:01;;;;;;;3.25;2.95;;;;;;;;;;5037059;28;20033;-66
2022/05/07 03:36:26;;;;;;;4.88;2.78;;;;;;;;;;5041465;28;20025;-65
2022/05/07 03:38:52;;;;;;;5.60;2.95;;;;;;;;;;5041918;28;20034;-66
2022/05/07 03:41:19;;;;;;;8.93;2.83;;;;;;;;;;5036235;28;20021;-66
2022/05/07 03:43:45;;;;;;;4.25;2.88;;;;;;;;;;5037491;28;20033;-65
2022/05/07 03:46:11;;;;;;;3.10;2.90;;;;;;;;;;5040438;28;20033;-65
2022/05/07 03:48:37;;;;;;;4.13;2.90;;;;;;;;;;5041617;28;20033;-65
2022/05/07 03:51:03;;;;;;;3.42;3.13;;;;;;;;;;5037004;28;20097;-65
2022/05/07 03:53:29;;;;;;;3.55;2.70;;;;;;;;;;5036068;28;20032;-66
2022/05/07 03:55:59;;;;;;;3.10;2.78;;;;;;;;;;5034930;28;20045;-66
2022/05/07 03:58:26;;;;;;;4.90;2.80;;;;;;;;;;5035542;28;20117;-65
2022/05/07 04:00:56;;;;;;;3.15;2.60;;;;;;;;;;5038014;28;20083;-65
2022/05/07 04:03:22;;;;;;;2.55;2.35;;;;;;;;;;5037429;28;20037;-66
2022/05/07 04:05:49;;;;;;;2.58;2.38;;;;;;;;;;5035821;28;20033;-65
2022/05/07 04:08:15;;;;;;;2.92;2.53;;;;;;;;;;5038927;28;20044;-66
2022/05/07 04:10:42;;;;;;;3.80;2.53;;;;;;;;;;5040427;28;20020;-66
2022/05/07 04:13:10;;;;;;;2.83;2.22;;;;;;;;;;5037567;28;20489;-66
2022/05/07 04:15:37;;;;;;;3.67;2.50;;;;;;;;;;5036575;28;20115;-66
2022/05/07 04:18:04;;;;;;;3.47;2.28;;;;;;;;;;5033568;28;20068;-65
2022/05/07 04:20:30;;;;;;;3.05;2.15;;;;;;;;;;5033012;28;20033;-66
2022/05/07 04:22:57;;;;;;;2.50;2.30;;;;;;;;;;5040722;28;20054;-65
2022/05/07 04:25:22;;;;;;;2.60;2.40;;;;;;;;;;5036388;28;20052;-66
2022/05/07 04:27:48;;;;;;;4.65;2.15;;;;;;;;;;5035032;28;20017;-65
2022/05/07 04:30:14;;;;;;;3.53;2.47;;;;;;;;;;5040975;28;20021;-65
2022/05/07 04:32:40;;;;;;;2.20;2.10;;;;;;;;;;5033236;28;20390;-66
2022/05/07 04:35:06;;;;;;;2.83;2.33;;;;;;;;;;5037267;28;20044;-66
2022/05/07 04:37:32;;;;;;;3.05;2.85;;;;;;;;;;5041888;28;20033;-65
2022/05/07 04:39:58;;;;;;;2.70;2.50;;;;;;;;;;5039081;28;20039;-66
2022/05/07 04:42:24;;;;;;;2.90;2.70;;;;;;;;;;5041430;28;20043;-66
2022/05/07 04:44:50;;;;;;;3.88;2.40;;;;;;;;;;5038933;28;20041;-66
2022/05/07 04:47:16;;;;;;;3.00;2.67;;;;;;;;;;5034656;28;20045;-66
2022/05/07 04:49:41;;;;;;;3.15;2.95;;;;;;;;;;5046552;28;20509;-66
2022/05/07 04:52:07;;;;;;;2.42;2.33;;;;;;;;;;5037657;28;20025;-66
2022/05/07 04:54:33;;;;;;;4.38;3.00;;;;;;;;;;5035869;28;20064;-66
2022/05/07 04:56:59;;;;;;;2.72;2.53;;;;;;;;;;5037642;28;20072;-66
2022/05/07 04:59:25;;;;;;;2.80;2.60;;;;;;;;;;5037029;28;20025;-65
2022/05/07 05:01:51;;;;;;;6.18;2.70;;;;;;;;;;5039150;28;20029;-65
2022/05/07 05:04:17;;;;;;;4.47;2.45;;;;;;;;;;5040701;28;20078;-65
2022/05/07 05:06:43;;;;;;;3.45;3.00;;;;;;;;;;5037656;28;20063;-65
2022/05/07 05:09:09;;;;;;;4.45;2.60;;;;;;;;;;5033499;28;20432;-65
2022/05/07 05:11:35;;;;;;;3.22;2.70;;;;;;;;;;5039905;28;20154;-65
2022/05/07 05:14:01;;;;;;;5.15;2.28;;;;;;;;;;5038500;28;20063;-66
2022/05/07 05:16:27;;;;;;;5.05;2.83;;;;;;;;;;5038135;28;20082;-65
2022/05/07 05:18:53;;;;;;;4.78;2.80;;;;;;;;;;5036944;28;20692;-66
2022/05/07 05:21:19;;;;;;;2.90;2.70;;;;;;;;;;5037963;28;20096;-66
2022/05/07 05:23:48;;;;;;;4.15;3.60;;;;;;;;;;5034484;28;20040;-66
2022/05/07 05:26:14;;;;;;;3.63;2.70;;;;;;;;;;5035633;28;20175;-65
2022/05/07 05:28:40;;;;;;;7.25;2.78;;;;;;;;;;5038259;28;20025;-65
2022/05/07 05:31:09;;;;;;;6.03;2.75;;;;;;;;;;5040728;28;20029;-65
2022/05/07 05:33:35;;;;;;;3.00;2.78;;;;;;;;;;5037873;28;20179;-65
2022/05/07 05:36:01;;;;;;;3.80;3.20;;;;;;;;;;5032927;28;20107;-66
2022/05/07 05:38:27;;;;;;;4.90;2.85;;;;;;;;;;5035398;28;20057;-66
2022/05/07 05:40:53;;;;;;;4.88;3.92;;;;;;;;;;5036252;28;20060;-66
2022/05/07 05:43:19;;;;;;;8.82;3.60;;;;;;;;;;5037014;28;20042;-66
2022/05/07 05:45:44;;;;;;;4.18;3.45;;;;;;;;;;5033122;28;20496;-65
2022/05/07 05:48:10;;;;;;;3.85;3.53;;;;;;;;;;5035375;28;20030;-65
2022/05/07 05:50:36;;;;;;;3.88;3.45;;;;;;;;;;5034209;28;20029;-65
2022/05/07 05:53:02;;;;;;;3.40;3.10;;;;;;;;;;5033886;28;20082;-66
2022/05/07 05:55:27;;;;;;;5.15;3.03;;;;;;;;;;5041919;28;20504;-65
2022/05/07 05:57:53;;;;;;;4.63;3.63;;;;;;;;;;5033624;28;20021;-65
2022/05/07 06:00:19;;;;;;;6.82;3.40;;;;;;;;;;5035724;28;20029;-65
2022/05/07 06:02:47;;;;;;;3.20;3.00;;;;;;;;;;5037726;28;20045;-66
2022/05/07 06:05:15;;;;;;;5.32;2.85;;;;;;;;;;5035204;28;20034;-65
2022/05/07 06:07:40;;;;;;;3.70;2.72;;;;;;;;;;5033077;28;20504;-65
2022/05/07 06:10:06;;;;;;;3.40;3.10;;;;;;;;;;5037569;28;20043;-66
2022/05/07 06:12:33;;;;;;;3.72;2.80;;;;;;;;;;5038273;28;20075;-65
2022/05/07 06:14:58;;;;;;;6.53;2.92;;;;;;;;;;5034088;28;20056;-65
2022/05/07 06:17:28;;;;;;;3.17;2.67;;;;;;;;;;5032099;28;20030;-65
2022/05/07 06:19:53;;;;;;;3.58;2.80;;;;;;;;;;5034430;28;20076;-65
2022/05/07 06:22:19;;;;;;;3.30;2.65;;;;;;;;;;5039418;28;20040;-65
2022/05/07 06:27:31;;;;;;;3.50;3.20;;;;;;;;;;5039298;28;20032;-65
2022/05/07 06:30:01;;;;;;;2.95;2.75;;;;;;;;;;5039532;28;20036;-66
2022/05/07 06:32:34;;;;;;;3.53;2.70;;;;;;;;;;5044736;28;20494;-66
2022/05/07 06:35:05;;;;;;;2.90;2.60;;;;;;;;;;5041834;28;20033;-65
2022/05/07 06:37:31;;;;;;;2.90;2.70;;;;;;;;;;5040724;28;20054;-66
2022/05/07 06:39:57;;;;;;;4.18;2.90;;;;;;;;;;5040404;28;20025;-65
2022/05/07 06:42:23;;;;;;;3.15;2.90;;;;;;;;;;5039523;28;20033;-66
2022/05/07 06:44:49;;;;;;;4.03;3.00;;;;;;;;;;5036351;28;20039;-67
2022/05/07 06:47:16;;;;;;;5.32;2.75;;;;;;;;;;5042415;28;20677;-66
2022/05/07 06:49:45;;;;;;;5.07;2.70;;;;;;;;;;5035401;28;20017;-66
2022/05/07 06:52:11;;;;;;;4.72;3.00;;;;;;;;;;5041537;28;20511;-66
2022/05/07 06:54:37;;;;;;;4.72;3.13;;;;;;;;;;5040063;28;20041;-66
2022/05/07 06:57:04;;;;;;;3.28;3.00;;;;;;;;;;5037690;28;20036;-66
2022/05/07 06:59:33;;;;;;;3.25;2.75;;;;;;;;;;5037636;28;20029;-66
2022/05/07 07:01:59;;;;;;;7.40;3.05;;;;;;;;;;5039318;28;20116;-66
2022/05/07 07:04:25;;;;;;;3.08;2.88;;;;;;;;;;5039983;28;20025;-65
2022/05/07 07:06:51;;;;;;;3.30;2.80;;;;;;;;;;5045489;28;20091;-66
2022/05/07 07:09:18;;;;;;;3.40;2.88;;;;;;;;;;5038366;28;20053;-65
2022/05/07 07:11:44;;;;;;;2.83;2.63;;;;;;;;;;5044404;28;20084;-66
2022/05/07 07:14:10;;;;;;;5.32;2.63;;;;;;;;;;5038864;28;20512;-66
2022/05/07 07:16:36;;;;;;;4.20;3.08;;;;;;;;;;5039987;28;20031;-66
2022/05/07 07:19:03;;;;;;;3.50;3.20;;;;;;;;;;5039815;28;20120;-66
2022/05/07 07:21:29;;;;;;;3.30;3.00;;;;;;;;;;5033941;28;20064;-66
2022/05/07 07:23:54;;;;;;;6.03;3.70;;;;;;;;;;5037090;28;20612;-66
2022/05/07 07:26:20;;;;;;;5.03;2.55;;;;;;;;;;5043348;28;20036;-66
2022/05/07 07:28:47;;;;;;;3.28;2.55;;;;;;;;;;5041126;28;20497;-67
2022/05/07 07:31:13;;;;;;;2.45;2.25;;;;;;;;;;5037711;28;20100;-65
2022/05/07 07:33:39;;;;;;;2.75;2.55;;;;;;;;;;5037372;28;20498;-66
2022/05/07 07:36:06;;;;;;;2.40;2.20;;;;;;;;;;5034020;28;20029;-67
2022/05/07 07:38:32;;;;;;;2.17;1.98;;;;;;;;;;5036200;28;20449;-66
2022/05/07 07:40:58;;;;;;;1.90;1.80;;;;;;;;;;5039913;28;20037;-66
2022/05/07 07:43:23;;;;;;;3.63;2.15;;;;;;;;;;5037499;28;20029;-66
2022/05/07 07:48:34;;;;;;;4.10;2.50;;;;;;;;;;5033860;28;20474;-66
2022/05/07 07:51:00;;;;;;;3.75;1.70;;;;;;;;;;5035418;28;20433;-66
2022/05/07 07:53:26;;;;;;;2.10;2.00;;;;;;;;;;5037438;28;20060;-66
2022/05/07 07:55:52;;;;;;;2.10;2.00;;;;;;;;;;5037093;28;20045;-59
2022/05/07 07:58:18;;;;;;;2.00;1.90;;;;;;;;;;5039356;28;20025;-66
2022/05/07 08:00:44;;;;;;;2.30;2.00;;;;;;;;;;5037315;28;20112;-66
2022/05/07 08:03:15;;;;;;;2.13;1.90;;;;;;;;;;5035705;28;20029;-66
2022/05/07 08:05:43;;;;;;;2.15;2.05;;;;;;;;;;5034444;28;20077;-67
2022/05/07 08:13:41;;;;;;;4.45;1.95;;;;;;;;;;5034987;28;20029;-66
2022/05/07 08:16:08;;;;;;;1.98;1.80;;;;;;;;;;5042398;28;20029;-66
2022/05/07 08:18:34;;;;;;;2.20;2.00;;;;;;;;;;5035734;28;20028;-67
2022/05/07 08:21:01;;;;;;;1.95;1.85;;;;;;;;;;5035739;28;20159;-68
2022/05/07 08:23:26;;;;;;;2.40;1.90;;;;;;;;;;5041260;28;20029;-67
2022/05/07 08:25:53;;;;;;;2.92;2.00;;;;;;;;;;5037826;28;20419;-67
2022/05/07 08:28:20;;;;;;;4.25;1.90;;;;;;;;;;5038280;28;20542;-67
2022/05/07 08:30:47;;;;;;;2.92;2.13;;;;;;;;;;5041052;28;20037;-67
2022/05/07 08:33:13;;;;;;;1.73;1.63;;;;;;;;;;5035487;28;20059;-66
2022/05/07 08:35:38;;;;;;;2.25;1.95;;;;;;;;;;5036961;28;20040;-66
2022/05/07 08:38:04;;;;;;;1.88;1.77;;;;;;;;;;5039407;28;20033;-67
2022/05/07 08:40:30;;;;;;;2.08;1.98;;;;;;;;;;5038753;28;20033;-67
2022/05/07 08:42:56;;;;;;;2.22;1.98;;;;;;;;;;5037377;28;20037;-66
2022/05/07 08:45:23;;;;;;;3.03;1.90;;;;;;;;;;5035877;28;20035;-67
2022/05/07 08:47:54;;;;;;;1.83;1.73;;;;;;;;;;5033720;28;20111;-67
2022/05/07 08:50:21;;;;;;;1.80;1.70;;;;;;;;;;5036470;28;20214;-66
2022/05/07 08:52:49;;;;;;;2.75;1.70;;;;;;;;;;5038931;28;20132;-66
2022/05/07 08:55:19;;;;;;;1.88;1.77;;;;;;;;;;5038473;28;20056;-67
2022/05/07 08:57:47;;;;;;;1.88;1.73;;;;;;;;;;5031229;28;20119;-67
2022/05/07 09:00:15;;;;;;;2.63;1.90;;;;;;;;;;5033044;28;20064;-67
2022/05/07 09:02:48;;;;;;;2.65;2.13;;;;;;;;;;5033673;28;20033;-67
2022/05/07 09:05:18;;;;;;;2.80;2.00;;;;;;;;;;5036493;28;20148;-66
2022/05/07 09:07:53;;;;;;;1.83;1.73;;;;;;;;;;5033139;28;20040;-67
2022/05/07 09:10:22;;;;;;;1.90;1.70;;;;;;;;;;5037893;28;20474;-66
2022/05/07 09:12:47;;;;;;;1.88;1.77;;;;;;;;;;5035974;28;20028;-67
2022/05/07 09:15:13;;;;;;;1.80;1.70;;;;;;;;;;5045692;28;20422;-66
2022/05/07 09:17:39;;;;;;;3.40;2.00;;;;;;;;;;5046653;28;20025;-66
2022/05/07 09:20:12;;;;;;;10.18;3.10;;;;;;;;;;5042401;28;20083;-66
2022/05/07 09:22:53;;;;;;;3.70;2.20;;;;;;;;;;5034504;28;20040;-67
2022/05/07 09:25:21;;;;;;;2.17;2.00;;;;;;;;;;5042247;28;21034;-67
2022/05/07 09:27:51;;;;;;;2.53;1.85;;;;;;;;;;5039189;28;20375;-66
2022/05/07 09:30:25;;;;;;;9.25;2.58;;;;;;;;;;5032358;28;20021;-66
2022/05/07 09:32:52;;;;;;;2.00;1.90;;;;;;;;;;5040555;28;20052;-66
2022/05/07 09:38:05;;;;;;;2.40;1.80;;;;;;;;;;5038647;28;20058;-66
2022/05/07 09:40:36;;;;;;;2.40;2.20;;;;;;;;;;5037461;28;20099;-66
2022/05/07 09:43:02;;;;;;;5.15;2.28;;;;;;;;;;5035646;28;20047;-65
2022/05/07 09:45:28;;;;;;;2.97;2.33;;;;;;;;;;5034413;28;20026;-65
2022/05/07 09:48:00;;;;;;;3.55;2.20;;;;;;;;;;5035949;28;20086;-66
2022/05/07 09:58:42;;;;;;;4.30;2.30;;;;;;;;;;5041508;28;20053;-66
2022/05/07 10:01:20;;;;;;;3.80;3.50;;;;;;;;;;5042093;28;20150;-65
2022/05/07 10:03:50;;;;;;;6.53;2.90;;;;;;;;;;5037357;28;20037;-65
2022/05/07 10:06:30;;;;;;;2.85;2.47;;;;;;;;;;5035559;28;20029;-65
2022/05/07 10:09:24;;;;;;;2.63;2.53;;;;;;;;;;5040353;28;20025;-65
2022/05/07 10:11:54;;;;;;;3.58;2.80;;;;;;;;;;5037993;28;20486;-65
2022/05/07 10:14:28;;;;;;;3.28;2.13;;;;;;;;;;5039958;28;20418;-64
2022/05/07 10:17:01;;;;;;;3.17;2.60;;;;;;;;;;5040274;28;20030;-65
2022/05/07 10:19:42;;;;;;;9.75;2.60;;;;;;;;;;5036217;28;20045;-65
2022/05/07 10:22:23;;;;;;;5.38;2.40;;;;;;;;;;5037771;28;20083;-64
2022/05/07 10:25:10;;;;;;;3.50;2.65;;;;;;;;;;5038362;28;20121;-65
2022/05/07 10:27:44;;;;;;;2.75;2.53;;;;;;;;;;5043181;28;20028;-64
2022/05/07 10:30:13;;;;;;;4.20;2.85;;;;;;;;;;5039755;28;20033;-65
2022/05/07 10:32:46;;;;;;;2.75;2.60;;;;;;;;;;5041118;28;20104;-65
2022/05/07 10:35:14;;;;;;;4.65;2.80;;;;;;;;;;5041576;28;20034;-55
2022/05/07 10:37:43;;;;;;;4.90;2.67;;;;;;;;;;5040911;28;20036;-64
2022/05/07 10:40:11;;;;;;;2.90;2.70;;;;;;;;;;5070837;28;20021;-65
2022/05/07 10:42:40;;;;;;;3.38;2.45;;;;;;;;;;5039126;28;20041;-65
2022/05/07 10:45:07;;;;;;;5.30;2.33;;;;;;;;;;5043890;28;20036;-64
2022/05/07 10:47:33;;;;;;;7.28;2.50;;;;;;;;;;5044463;28;20033;-65
2022/05/07 10:50:13;;;;;;;2.53;2.33;;;;;;;;;;5045141;28;20033;-66
2022/05/07 10:52:39;;;;;;;2.00;1.90;;;;;;;;;;5043510;28;20034;-66
2022/05/07 10:55:17;;;;;;;2.50;2.30;;;;;;;;;;5038813;28;20047;-65
2022/05/07 10:57:47;;;;;;;2.33;2.13;;;;;;;;;;5037260;28;20029;-66
2022/05/07 11:00:21;;;;;;;2.30;2.10;;;;;;;;;;5038099;28;20036;-65
2022/05/07 11:02:49;;;;;;;2.25;2.15;;;;;;;;;;5038771;28;20033;-65
2022/05/07 11:05:15;;;;;;;1.98;1.85;;;;;;;;;;5037998;28;20049;-65
2022/05/07 11:07:43;;;;;;;2.05;1.95;;;;;;;;;;5037241;28;20556;-66
2022/05/07 11:10:11;;;;;;;2.72;1.80;;;;;;;;;;5040752;28;20031;-65
2022/05/07 11:12:39;;;;;;;3.60;1.90;;;;;;;;;;5039323;28;20163;-65
2022/05/07 11:15:07;;;;;;;1.90;1.65;;;;;;;;;;5039022;28;20040;-65
2022/05/07 11:17:40;;;;;;;1.80;1.70;;;;;;;;;;5038520;28;20024;-65
2022/05/07 11:20:07;;;;;;;4.25;1.63;;;;;;;;;;5046881;28;20504;-65
2022/05/07 11:22:33;;;;;;;1.80;1.50;;;;;;;;;;5038363;28;20035;-64
2022/05/07 11:25:01;;;;;;;1.70;1.60;;;;;;;;;;5038854;28;20289;-65
2022/05/07 11:27:34;;;;;;;2.72;1.70;;;;;;;;;;5037377;28;20416;-65
2022/05/07 11:30:03;;;;;;;1.80;1.70;;;;;;;;;;5041998;28;20546;-65
2022/05/07 11:32:40;;;;;;;1.90;1.67;;;;;;;;;;5045543;28;20032;-65
2022/05/07 11:35:06;;;;;;;3.42;1.70;;;;;;;;;;5037018;28;20490;-66
2022/05/07 11:37:41;;;;;;;1.58;1.48;;;;;;;;;;5041369;28;20525;-65
2022/05/07 11:40:09;;;;;;;7.70;2.10;;;;;;;;;;5041828;28;20075;-65
2022/05/07 11:42:38;;;;;;;1.83;1.73;;;;;;;;;;5037849;28;20567;-65
2022/05/07 11:45:26;;;;;;;1.90;1.80;;;;;;;;;;5034436;28;20040;-66
2022/05/07 11:48:07;;;;;;;1.58;1.40;;;;;;;;;;5038640;28;20033;-66
2022/05/07 11:50:41;;;;;;;3.38;1.70;;;;;;;;;;5034636;28;20058;-63
2022/05/07 11:53:14;;;;;;;4.28;1.98;;;;;;;;;;5041001;28;20056;-65
2022/05/07 11:55:41;;;;;;;1.60;1.50;;;;;;;;;;5037590;28;20037;-65
2022/05/07 11:58:20;;;;;;;5.68;2.10;;;;;;;;;;5035351;28;20025;-65
2022/05/07 12:00:51;;;;;;;1.50;1.40;;;;;;;;;;5036202;28;20091;-65
2022/05/07 12:03:18;;;;;;;2.75;1.60;;;;;;;;;;5044023;28;20025;-65
2022/05/07 12:05:49;;;;;;;1.50;1.23;;;;;;;;;;5043477;28;20029;-65
2022/05/07 12:08:21;;;;;;;1.00;1.00;;;;;;;;;;5040737;28;20033;-66
2022/05/07 12:10:49;;;;;;;1.02;1.02;;;;;;;;;;5039162;28;20063;-65
2022/05/07 12:13:16;;;;;;;1.17;1.10;;;;;;;;;;5035797;28;20551;-65
2022/05/07 12:18:27;;;;;;;1.70;1.60;;;;;;;;;;5036392;28;20059;-65
2022/05/07 12:20:54;;;;;;;2.33;2.10;;;;;;;;;;5037166;28;20025;-65
2022/05/07 12:31:52;;;;;;;2.45;2.25;;;;;;;;;;5031348;28;20048;-64
2022/05/07 12:34:21;;;;;;;4.07;2.53;;;;;;;;;;5037345;28;20192;-64
2022/05/07 12:36:47;;;;;;;2.63;2.42;;;;;;;;;;5040559;28;20025;-64
2022/05/07 12:39:13;;;;;;;2.65;2.13;;;;;;;;;;5033115;28;20135;-63
2022/05/07 12:41:43;;;;;;;3.17;2.65;;;;;;;;;;5032915;28;20793;-64
2022/05/07 12:44:08;;;;;;;2.83;2.45;;;;;;;;;;5032924;28;20060;-64
2022/05/07 12:46:34;;;;;;;3.05;2.50;;;;;;;;;;5034204;28;20363;-64
2022/05/07 12:49:00;;;;;;;2.38;2.28;;;;;;;;;;5031623;28;20164;-64
2022/05/07 12:51:27;;;;;;;2.40;2.30;;;;;;;;;;5033105;28;20061;-63
2022/05/07 12:53:53;;;;;;;4.97;2.35;;;;;;;;;;5038633;28;20059;-61
2022/05/07 12:56:19;;;;;;;2.50;2.30;;;;;;;;;;5031829;28;20549;-64
2022/05/07 12:58:44;;;;;;;5.53;2.30;;;;;;;;;;5036544;28;20131;-64
2022/05/07 13:01:12;;;;;;;2.25;2.13;;;;;;;;;;5037523;28;20405;-64
2022/05/07 13:03:38;;;;;;;3.95;2.30;;;;;;;;;;5030882;28;20478;-64
2022/05/07 13:06:04;;;;;;;2.65;2.35;;;;;;;;;;5032983;28;20075;-64
2022/05/07 13:08:30;;;;;;;5.72;2.40;;;;;;;;;;5037992;28;20150;-63
2022/05/07 13:10:57;;;;;;;3.05;2.47;;;;;;;;;;5038816;28;20420;-64
2022/05/07 13:13:24;;;;;;;3.63;2.40;;;;;;;;;;5039840;28;20067;-64
2022/05/07 13:15:51;;;;;;;2.78;2.38;;;;;;;;;;5033700;28;20118;-64
2022/05/07 13:18:17;;;;;;;2.50;2.30;;;;;;;;;;5042028;28;20063;-64
2022/05/07 13:20:43;;;;;;;2.30;2.20;;;;;;;;;;5038275;28;20079;-63
2022/05/07 13:23:12;;;;;;;31.52;2.80;;;;;;;;;;5036537;28;20029;-64
2022/05/07 13:25:38;;;;;;;3.63;2.20;;;;;;;;;;5036690;28;20151;-65
2022/05/07 13:28:04;;;;;;;7.47;2.65;;;;;;;;;;5037779;28;20032;-65
2022/05/07 13:30:31;;;;;;;2.45;2.25;;;;;;;;;;5032004;28;20094;-64
2022/05/07 13:32:57;;;;;;;3.15;2.28;;;;;;;;;;5032502;28;20091;-64
2022/05/07 13:35:24;;;;;;;2.55;2.38;;;;;;;;;;5035507;28;20033;-64
2022/05/07 13:37:50;;;;;;;3.55;2.45;;;;;;;;;;5035414;28;20025;-64
2022/05/07 13:40:16;;;;;;;4.68;2.15;;;;;;;;;;5040071;28;20029;-64
2022/05/07 13:42:42;;;;;;;3.28;2.08;;;;;;;;;;5035108;28;20693;-64
2022/05/07 13:45:10;;;;;;;2.13;2.03;;;;;;;;;;5040787;28;20033;-64
2022/05/07 13:47:41;;;;;;;5.03;2.30;;;;;;;;;;5036324;28;20033;-64
2022/05/07 13:50:08;;;;;;;2.38;2.17;;;;;;;;;;5035664;28;20117;-64
2022/05/07 13:52:39;;;;;;;4.30;2.47;;;;;;;;;;5039481;28;20385;-64
2022/05/07 13:55:07;;;;;;;3.65;2.33;;;;;;;;;;5041278;28;20060;-63
2022/05/07 13:57:33;;;;;;;3.35;2.30;;;;;;;;;;5034595;28;20036;-64
2022/05/07 13:59:59;;;;;;;2.42;2.22;;;;;;;;;;5036378;28;20463;-64
2022/05/07 14:02:27;;;;;;;4.97;2.08;;;;;;;;;;5040119;28;20148;-64
2022/05/07 14:04:52;;;;;;;2.10;2.00;;;;;;;;;;5038223;28;20038;-64
2022/05/07 14:07:19;;;;;;;4.40;2.33;;;;;;;;;;5036818;28;20035;-64
2022/05/07 14:09:49;;;;;;;5.30;2.20;;;;;;;;;;5033237;28;20382;-64
2022/05/07 14:12:19;;;;;;;6.80;2.40;;;;;;;;;;5035196;28;20036;-64
2022/05/07 14:14:46;;;;;;;4.10;2.20;;;;;;;;;;5037481;28;20041;-64
2022/05/07 14:17:12;;;;;;;7.57;1.98;;;;;;;;;;5042274;28;20061;-63
2022/05/07 14:19:39;;;;;;;5.07;1.90;;;;;;;;;;5040878;28;20041;-64
2022/05/07 14:22:05;;;;;;;4.03;2.17;;;;;;;;;;5033798;28;20029;-64
2022/05/07 14:24:31;;;;;;;2.85;2.03;;;;;;;;;;5036966;28;20029;-63
2022/05/07 14:26:57;;;;;;;4.50;2.33;;;;;;;;;;5031433;28;20048;-64
2022/05/07 14:29:24;;;;;;;2.08;1.98;;;;;;;;;;5033058;28;20026;-63
2022/05/07 14:31:50;;;;;;;3.40;2.00;;;;;;;;;;5036368;28;20578;-63
2022/05/07 14:34:17;;;;;;;2.13;1.95;;;;;;;;;;5031590;28;20060;-64
2022/05/07 14:36:42;;;;;;;5.15;2.13;;;;;;;;;;5037452;28;20029;-63
2022/05/07 14:39:08;;;;;;;2.45;2.22;;;;;;;;;;5031648;28;20087;-63
2022/05/07 14:41:34;;;;;;;4.68;1.80;;;;;;;;;;5035694;28;20025;-64
2022/05/07 14:44:00;;;;;;;3.83;2.00;;;;;;;;;;5041597;28;20036;-64
2022/05/07 14:46:26;;;;;;;4.25;2.28;;;;;;;;;;5037662;28;20033;-63
2022/05/07 14:48:51;;;;;;;2.22;2.00;;;;;;;;;;5038639;28;20029;-63
2022/05/07 14:51:18;;;;;;;3.13;2.35;;;;;;;;;;5037649;28;20386;-62
2022/05/07 14:53:45;;;;;;;2.00;1.80;;;;;;;;;;5041361;28;20048;-63
2022/05/07 14:56:11;;;;;;;3.88;2.35;;;;;;;;;;5042596;28;20075;-62
2022/05/07 14:58:37;;;;;;;2.63;2.13;;;;;;;;;;5037020;28;20021;-63
2022/05/07 15:01:03;;;;;;;4.88;2.60;;;;;;;;;;5042714;28;20028;-62
2022/05/07 15:03:31;;;;;;;1.80;1.70;;;;;;;;;;5038301;28;20416;-63
2022/05/07 15:05:57;;;;;;;3.03;2.20;;;;;;;;;;5042959;28;20111;-62
2022/05/07 15:11:10;;;;;;;10.80;2.30;;;;;;;;;;5043331;28;20036;-63
2022/05/07 15:13:36;;;;;;;4.75;2.13;;;;;;;;;;5038250;28;20064;-64
2022/05/07 15:16:02;;;;;;;7.53;2.20;;;;;;;;;;5044446;28;20505;-63
2022/05/07 15:18:27;;;;;;;3.55;2.45;;;;;;;;;;5035111;28;20029;-63
2022/05/07 15:20:53;;;;;;;2.40;2.20;;;;;;;;;;5039386;28;20029;-62
2022/05/07 15:23:19;;;;;;;2.45;2.30;;;;;;;;;;5042509;28;20401;-62
2022/05/07 15:25:45;;;;;;;2.30;2.20;;;;;;;;;;5035499;28;20499;-63